sensor_id;sensor_type;location;lat;lon;timestamp;P1;durP1;ratioP1;P2;durP2;ratioP2
22144;SDS011;11238;48.730;11.566;2023-04-24T00:00:30;3.72;;;2.63;;
22144;SDS011;11238;48.730;11.566;2023-04-24T00:02:56;4.45;;;2.67;;
22144;SDS011;11238;48.730;11.566;2023-04-24T00:05:23;3.70;;;2.60;;
22144;SDS011;11238;48.730;11.566;2023-04-24T00:07:49;5.20;;;2.60;;
22144;SDS011;11238;48.730;11.566;2023-04-24T00:10:18;6.25;;;2.50;;
22144;SDS011;11238;48.730;11.566;2023-04-24T00:12:44;5.78;;;2.60;;
22144;SDS011;11238;48.730;11.566;2023-04-24T00:15:10;4.18;;;2.58;;
22144;SDS011;11238;48.730;11.566;2023-04-24T00:17:36;4.28;;;1.98;;
22144;SDS011;11238;48.730;11.566;2023-04-24T00:20:02;2.80;;;2.22;;
22144;SDS011;11238;48.730;11.566;2023-04-24T00:22:30;5.28;;;2.30;;
22144;SDS011;11238;48.730;11.566;2023-04-24T00:24:56;5.60;;;2.30;;
22144;SDS011;11238;48.730;11.566;2023-04-24T00:27:22;2.20;;;1.77;;
22144;SDS011;11238;48.730;11.566;2023-04-24T00:29:49;3.65;;;2.40;;
22144;SDS011;11238;48.730;11.566;2023-04-24T00:32:15;3.47;;;2.00;;
22144;SDS011;11238;48.730;11.566;2023-04-24T00:35:03;3.15;;;2.25;;
22144;SDS011;11238;48.730;11.566;2023-04-24T00:37:29;3.10;;;2.10;;
22144;SDS011;11238;48.730;11.566;2023-04-24T00:39:55;4.75;;;2.20;;
22144;SDS011;11238;48.730;11.566;2023-04-24T00:42:21;2.70;;;2.10;;
22144;SDS011;11238;48.730;11.566;2023-04-24T00:44:47;3.78;;;2.35;;
22144;SDS011;11238;48.730;11.566;2023-04-24T00:47:14;3.20;;;2.35;;
22144;SDS011;11238;48.730;11.566;2023-04-24T00:49:40;2.95;;;2.53;;
22144;SDS011;11238;48.730;11.566;2023-04-24T00:52:06;4.22;;;2.53;;
22144;SDS011;11238;48.730;11.566;2023-04-24T00:54:34;3.42;;;2.90;;
22144;SDS011;11238;48.730;11.566;2023-04-24T00:57:02;2.55;;;2.33;;
22144;SDS011;11238;48.730;11.566;2023-04-24T00:59:29;3.95;;;2.72;;
22144;SDS011;11238;48.730;11.566;2023-04-24T01:01:55;6.00;;;3.08;;
22144;SDS011;11238;48.730;11.566;2023-04-24T01:04:21;4.90;;;2.70;;
22144;SDS011;11238;48.730;11.566;2023-04-24T01:06:48;3.25;;;2.78;;
22144;SDS011;11238;48.730;11.566;2023-04-24T01:09:15;4.22;;;2.58;;
22144;SDS011;11238;48.730;11.566;2023-04-24T01:11:42;4.20;;;2.78;;
22144;SDS011;11238;48.730;11.566;2023-04-24T01:14:10;3.92;;;2.47;;
22144;SDS011;11238;48.730;11.566;2023-04-24T01:16:37;5.05;;;2.72;;
22144;SDS011;11238;48.730;11.566;2023-04-24T01:19:04;5.35;;;2.80;;
22144;SDS011;11238;48.730;11.566;2023-04-24T01:21:31;5.30;;;2.67;;
22144;SDS011;11238;48.730;11.566;2023-04-24T01:24:05;2.92;;;2.50;;
22144;SDS011;11238;48.730;11.566;2023-04-24T01:26:32;2.90;;;2.28;;
22144;SDS011;11238;48.730;11.566;2023-04-24T01:28:58;4.15;;;2.55;;
22144;SDS011;11238;48.730;11.566;2023-04-24T01:31:24;5.85;;;2.47;;
22144;SDS011;11238;48.730;11.566;2023-04-24T01:33:51;3.38;;;2.20;;
22144;SDS011;11238;48.730;11.566;2023-04-24T01:36:17;2.60;;;2.10;;
22144;SDS011;11238;48.730;11.566;2023-04-24T01:38:44;3.03;;;2.40;;
22144;SDS011;11238;48.730;11.566;2023-04-24T01:41:10;3.10;;;2.15;;
22144;SDS011;11238;48.730;11.566;2023-04-24T01:43:38;4.35;;;2.00;;
22144;SDS011;11238;48.730;11.566;2023-04-24T01:46:05;2.90;;;2.03;;
22144;SDS011;11238;48.730;11.566;2023-04-24T01:48:34;3.05;;;2.10;;
22144;SDS011;11238;48.730;11.566;2023-04-24T01:51:01;3.05;;;2.40;;
22144;SDS011;11238;48.730;11.566;2023-04-24T01:53:28;3.55;;;2.13;;
22144;SDS011;11238;48.730;11.566;2023-04-24T01:55:54;2.58;;;2.17;;
22144;SDS011;11238;48.730;11.566;2023-04-24T01:58:20;2.22;;;2.03;;
22144;SDS011;11238;48.730;11.566;2023-04-24T02:00:47;4.72;;;2.10;;
22144;SDS011;11238;48.730;11.566;2023-04-24T02:03:13;7.10;;;1.95;;
22144;SDS011;11238;48.730;11.566;2023-04-24T02:05:38;2.63;;;1.77;;
22144;SDS011;11238;48.730;11.566;2023-04-24T02:08:04;2.45;;;1.88;;
22144;SDS011;11238;48.730;11.566;2023-04-24T02:10:30;2.85;;;1.77;;
22144;SDS011;11238;48.730;11.566;2023-04-24T02:12:57;2.38;;;1.90;;
22144;SDS011;11238;48.730;11.566;2023-04-24T02:15:25;2.80;;;2.10;;
22144;SDS011;11238;48.730;11.566;2023-04-24T02:17:51;3.53;;;2.00;;
22144;SDS011;11238;48.730;11.566;2023-04-24T02:20:16;2.97;;;1.90;;
22144;SDS011;11238;48.730;11.566;2023-04-24T02:22:42;5.22;;;1.90;;
22144;SDS011;11238;48.730;11.566;2023-04-24T02:25:08;4.40;;;2.00;;
22144;SDS011;11238;48.730;11.566;2023-04-24T02:27:34;4.90;;;1.67;;
22144;SDS011;11238;48.730;11.566;2023-04-24T02:30:03;2.00;;;1.70;;
22144;SDS011;11238;48.730;11.566;2023-04-24T02:32:30;2.08;;;1.83;;
22144;SDS011;11238;48.730;11.566;2023-04-24T02:34:56;4.55;;;1.77;;
22144;SDS011;11238;48.730;11.566;2023-04-24T02:37:22;3.35;;;1.70;;
22144;SDS011;11238;48.730;11.566;2023-04-24T02:39:47;4.95;;;1.73;;
22144;SDS011;11238;48.730;11.566;2023-04-24T02:42:13;3.45;;;1.90;;
22144;SDS011;11238;48.730;11.566;2023-04-24T02:44:40;2.72;;;1.90;;
22144;SDS011;11238;48.730;11.566;2023-04-24T02:47:06;4.05;;;1.77;;
22144;SDS011;11238;48.730;11.566;2023-04-24T02:49:33;4.03;;;1.50;;
22144;SDS011;11238;48.730;11.566;2023-04-24T02:51:58;2.35;;;1.58;;
22144;SDS011;11238;48.730;11.566;2023-04-24T02:54:25;2.90;;;1.60;;
22144;SDS011;11238;48.730;11.566;2023-04-24T02:56:51;1.73;;;1.55;;
22144;SDS011;11238;48.730;11.566;2023-04-24T02:59:17;2.72;;;1.50;;
22144;SDS011;11238;48.730;11.566;2023-04-24T03:01:42;1.77;;;1.63;;
22144;SDS011;11238;48.730;11.566;2023-04-24T03:04:09;2.10;;;1.75;;
22144;SDS011;11238;48.730;11.566;2023-04-24T03:06:35;3.47;;;1.85;;
22144;SDS011;11238;48.730;11.566;2023-04-24T03:09:01;1.92;;;1.70;;
22144;SDS011;11238;48.730;11.566;2023-04-24T03:11:28;2.05;;;1.88;;
22144;SDS011;11238;48.730;11.566;2023-04-24T03:13:54;2.03;;;1.70;;
22144;SDS011;11238;48.730;11.566;2023-04-24T03:16:20;4.22;;;1.80;;
22144;SDS011;11238;48.730;11.566;2023-04-24T03:18:49;2.00;;;1.80;;
22144;SDS011;11238;48.730;11.566;2023-04-24T03:21:15;2.50;;;1.60;;
22144;SDS011;11238;48.730;11.566;2023-04-24T03:23:41;2.97;;;1.70;;
22144;SDS011;11238;48.730;11.566;2023-04-24T03:26:08;2.95;;;1.48;;
22144;SDS011;11238;48.730;11.566;2023-04-24T03:28:37;2.97;;;1.90;;
22144;SDS011;11238;48.730;11.566;2023-04-24T03:31:03;2.00;;;1.50;;
22144;SDS011;11238;48.730;11.566;2023-04-24T03:33:33;1.75;;;1.60;;
22144;SDS011;11238;48.730;11.566;2023-04-24T03:36:00;2.40;;;1.60;;
22144;SDS011;11238;48.730;11.566;2023-04-24T03:38:32;2.55;;;1.58;;
22144;SDS011;11238;48.730;11.566;2023-04-24T03:41:17;2.78;;;1.50;;
22144;SDS011;11238;48.730;11.566;2023-04-24T03:43:54;4.95;;;1.60;;
22144;SDS011;11238;48.730;11.566;2023-04-24T03:46:20;1.67;;;1.48;;
22144;SDS011;11238;48.730;11.566;2023-04-24T03:48:52;4.03;;;1.30;;
22144;SDS011;11238;48.730;11.566;2023-04-24T03:51:40;2.22;;;1.40;;
22144;SDS011;11238;48.730;11.566;2023-04-24T03:54:19;1.80;;;1.60;;
22144;SDS011;11238;48.730;11.566;2023-04-24T03:56:45;2.38;;;1.40;;
22144;SDS011;11238;48.730;11.566;2023-04-24T03:59:12;3.30;;;1.30;;
22144;SDS011;11238;48.730;11.566;2023-04-24T04:01:39;2.42;;;1.35;;
22144;SDS011;11238;48.730;11.566;2023-04-24T04:04:15;2.00;;;1.38;;
22144;SDS011;11238;48.730;11.566;2023-04-24T04:06:43;2.75;;;1.70;;
22144;SDS011;11238;48.730;11.566;2023-04-24T04:09:12;6.38;;;1.63;;
22144;SDS011;11238;48.730;11.566;2023-04-24T04:11:38;1.55;;;1.42;;
22144;SDS011;11238;48.730;11.566;2023-04-24T04:14:04;1.98;;;1.48;;
22144;SDS011;11238;48.730;11.566;2023-04-24T04:16:32;1.73;;;1.30;;
22144;SDS011;11238;48.730;11.566;2023-04-24T04:19:01;5.13;;;1.50;;
22144;SDS011;11238;48.730;11.566;2023-04-24T04:21:31;4.10;;;1.65;;
22144;SDS011;11238;48.730;11.566;2023-04-24T04:24:08;2.88;;;1.63;;
22144;SDS011;11238;48.730;11.566;2023-04-24T04:26:38;4.22;;;1.40;;
22144;SDS011;11238;48.730;11.566;2023-04-24T04:29:07;3.03;;;1.60;;
22144;SDS011;11238;48.730;11.566;2023-04-24T04:31:36;2.10;;;1.40;;
22144;SDS011;11238;48.730;11.566;2023-04-24T04:34:07;2.63;;;1.50;;
22144;SDS011;11238;48.730;11.566;2023-04-24T04:36:34;7.57;;;1.70;;
22144;SDS011;11238;48.730;11.566;2023-04-24T04:39:15;2.63;;;1.33;;
22144;SDS011;11238;48.730;11.566;2023-04-24T04:41:53;1.55;;;1.35;;
22144;SDS011;11238;48.730;11.566;2023-04-24T04:44:20;2.67;;;1.63;;
22144;SDS011;11238;48.730;11.566;2023-04-24T04:46:46;4.47;;;1.50;;
22144;SDS011;11238;48.730;11.566;2023-04-24T04:49:32;3.35;;;1.60;;
22144;SDS011;11238;48.730;11.566;2023-04-24T04:51:59;3.20;;;1.55;;
22144;SDS011;11238;48.730;11.566;2023-04-24T04:54:25;5.20;;;1.70;;
22144;SDS011;11238;48.730;11.566;2023-04-24T04:56:52;3.95;;;1.92;;
22144;SDS011;11238;48.730;11.566;2023-04-24T04:59:18;2.50;;;1.58;;
22144;SDS011;11238;48.730;11.566;2023-04-24T05:01:45;1.70;;;1.30;;
22144;SDS011;11238;48.730;11.566;2023-04-24T05:04:12;2.85;;;1.77;;
22144;SDS011;11238;48.730;11.566;2023-04-24T05:06:39;3.10;;;1.73;;
22144;SDS011;11238;48.730;11.566;2023-04-24T05:09:05;2.90;;;1.70;;
22144;SDS011;11238;48.730;11.566;2023-04-24T05:11:38;2.15;;;1.35;;
22144;SDS011;11238;48.730;11.566;2023-04-24T05:14:05;2.10;;;1.50;;
22144;SDS011;11238;48.730;11.566;2023-04-24T05:16:34;2.90;;;1.55;;
22144;SDS011;11238;48.730;11.566;2023-04-24T05:19:24;3.63;;;1.77;;
22144;SDS011;11238;48.730;11.566;2023-04-24T05:21:50;1.65;;;1.55;;
22144;SDS011;11238;48.730;11.566;2023-04-24T05:24:16;4.15;;;2.10;;
22144;SDS011;11238;48.730;11.566;2023-04-24T05:27:04;2.28;;;1.88;;
22144;SDS011;11238;48.730;11.566;2023-04-24T05:29:35;3.30;;;1.80;;
22144;SDS011;11238;48.730;11.566;2023-04-24T05:32:03;3.13;;;1.65;;
22144;SDS011;11238;48.730;11.566;2023-04-24T05:34:30;2.75;;;2.03;;
22144;SDS011;11238;48.730;11.566;2023-04-24T05:36:56;2.30;;;1.90;;
22144;SDS011;11238;48.730;11.566;2023-04-24T05:39:22;3.63;;;1.70;;
22144;SDS011;11238;48.730;11.566;2023-04-24T05:41:50;3.28;;;1.90;;
22144;SDS011;11238;48.730;11.566;2023-04-24T05:44:16;3.30;;;1.70;;
22144;SDS011;11238;48.730;11.566;2023-04-24T05:46:42;2.15;;;1.73;;
22144;SDS011;11238;48.730;11.566;2023-04-24T05:49:10;5.30;;;1.80;;
22144;SDS011;11238;48.730;11.566;2023-04-24T05:51:35;2.05;;;1.60;;
22144;SDS011;11238;48.730;11.566;2023-04-24T05:54:01;6.15;;;1.70;;
22144;SDS011;11238;48.730;11.566;2023-04-24T05:56:29;4.88;;;1.70;;
22144;SDS011;11238;48.730;11.566;2023-04-24T05:58:56;3.38;;;1.70;;
22144;SDS011;11238;48.730;11.566;2023-04-24T06:01:23;2.95;;;1.70;;
22144;SDS011;11238;48.730;11.566;2023-04-24T06:03:57;3.33;;;1.80;;
22144;SDS011;11238;48.730;11.566;2023-04-24T06:06:24;3.63;;;1.67;;
22144;SDS011;11238;48.730;11.566;2023-04-24T06:08:51;2.60;;;1.73;;
22144;SDS011;11238;48.730;11.566;2023-04-24T06:11:19;2.22;;;1.50;;
22144;SDS011;11238;48.730;11.566;2023-04-24T06:13:46;1.83;;;1.55;;
22144;SDS011;11238;48.730;11.566;2023-04-24T06:16:42;2.22;;;1.55;;
22144;SDS011;11238;48.730;11.566;2023-04-24T06:19:30;2.05;;;1.55;;
22144;SDS011;11238;48.730;11.566;2023-04-24T06:21:56;2.65;;;1.60;;
22144;SDS011;11238;48.730;11.566;2023-04-24T06:24:24;3.83;;;1.48;;
22144;SDS011;11238;48.730;11.566;2023-04-24T06:27:02;3.30;;;1.45;;
22144;SDS011;11238;48.730;11.566;2023-04-24T06:29:39;2.95;;;1.58;;
22144;SDS011;11238;48.730;11.566;2023-04-24T06:32:05;2.22;;;1.58;;
22144;SDS011;11238;48.730;11.566;2023-04-24T06:34:32;1.92;;;1.60;;
22144;SDS011;11238;48.730;11.566;2023-04-24T06:36:59;1.48;;;1.38;;
22144;SDS011;11238;48.730;11.566;2023-04-24T06:39:25;1.60;;;1.50;;
22144;SDS011;11238;48.730;11.566;2023-04-24T06:41:51;2.13;;;1.50;;
22144;SDS011;11238;48.730;11.566;2023-04-24T06:44:19;2.33;;;1.58;;
22144;SDS011;11238;48.730;11.566;2023-04-24T06:46:45;1.55;;;1.23;;
22144;SDS011;11238;48.730;11.566;2023-04-24T06:49:10;3.65;;;1.63;;
22144;SDS011;11238;48.730;11.566;2023-04-24T06:51:37;1.88;;;1.40;;
22144;SDS011;11238;48.730;11.566;2023-04-24T06:54:03;3.28;;;1.50;;
22144;SDS011;11238;48.730;11.566;2023-04-24T06:56:31;4.22;;;1.42;;
22144;SDS011;11238;48.730;11.566;2023-04-24T06:58:59;2.88;;;1.50;;
22144;SDS011;11238;48.730;11.566;2023-04-24T07:01:45;2.95;;;1.73;;
22144;SDS011;11238;48.730;11.566;2023-04-24T07:04:11;3.60;;;1.40;;
22144;SDS011;11238;48.730;11.566;2023-04-24T07:06:38;6.00;;;1.80;;
22144;SDS011;11238;48.730;11.566;2023-04-24T07:09:04;3.67;;;1.52;;
22144;SDS011;11238;48.730;11.566;2023-04-24T07:11:31;3.47;;;1.35;;
22144;SDS011;11238;48.730;11.566;2023-04-24T07:14:15;2.65;;;1.33;;
22144;SDS011;11238;48.730;11.566;2023-04-24T07:16:41;2.72;;;1.40;;
22144;SDS011;11238;48.730;11.566;2023-04-24T07:19:08;2.00;;;1.42;;
22144;SDS011;11238;48.730;11.566;2023-04-24T07:21:35;1.88;;;1.20;;
22144;SDS011;11238;48.730;11.566;2023-04-24T07:24:00;1.23;;;1.10;;
22144;SDS011;11238;48.730;11.566;2023-04-24T07:26:27;2.22;;;1.30;;
22144;SDS011;11238;48.730;11.566;2023-04-24T07:28:54;1.80;;;1.02;;
22144;SDS011;11238;48.730;11.566;2023-04-24T07:31:20;1.52;;;1.10;;
22144;SDS011;11238;48.730;11.566;2023-04-24T07:33:47;1.60;;;1.05;;
22144;SDS011;11238;48.730;11.566;2023-04-24T07:36:15;1.58;;;1.08;;
22144;SDS011;11238;48.730;11.566;2023-04-24T07:38:45;4.25;;;1.10;;
22144;SDS011;11238;48.730;11.566;2023-04-24T07:41:12;2.25;;;1.15;;
22144;SDS011;11238;48.730;11.566;2023-04-24T07:43:39;3.03;;;1.90;;
22144;SDS011;11238;48.730;11.566;2023-04-24T07:46:06;5.05;;;1.20;;
22144;SDS011;11238;48.730;11.566;2023-04-24T07:48:56;1.88;;;1.10;;
22144;SDS011;11238;48.730;11.566;2023-04-24T07:51:51;1.42;;;0.93;;
22144;SDS011;11238;48.730;11.566;2023-04-24T07:54:17;2.45;;;1.00;;
22144;SDS011;11238;48.730;11.566;2023-04-24T07:56:43;1.80;;;1.15;;
22144;SDS011;11238;48.730;11.566;2023-04-24T07:59:10;2.67;;;1.30;;
22144;SDS011;11238;48.730;11.566;2023-04-24T08:05:40;1.92;;;1.58;;
22144;SDS011;11238;48.730;11.566;2023-04-24T08:08:09;2.22;;;1.67;;
22144;SDS011;11238;48.730;11.566;2023-04-24T08:10:41;2.30;;;1.50;;
22144;SDS011;11238;48.730;11.566;2023-04-24T08:13:40;2.47;;;1.55;;
22144;SDS011;11238;48.730;11.566;2023-04-24T08:56:47;3.78;;;1.60;;
22144;SDS011;11238;48.730;11.566;2023-04-24T08:59:15;1.75;;;1.40;;
22144;SDS011;11238;48.730;11.566;2023-04-24T09:01:44;2.65;;;1.20;;
22144;SDS011;11238;48.730;11.566;2023-04-24T09:04:11;2.85;;;1.42;;
22144;SDS011;11238;48.730;11.566;2023-04-24T09:06:41;2.40;;;1.30;;
22144;SDS011;11238;48.730;11.566;2023-04-24T09:09:08;1.33;;;1.20;;
22144;SDS011;11238;48.730;11.566;2023-04-24T09:11:37;2.42;;;1.45;;
22144;SDS011;11238;48.730;11.566;2023-04-24T09:14:04;2.20;;;2.00;;
22144;SDS011;11238;48.730;11.566;2023-04-24T09:16:30;1.90;;;1.65;;
22144;SDS011;11238;48.730;11.566;2023-04-24T09:18:58;4.95;;;1.73;;
22144;SDS011;11238;48.730;11.566;2023-04-24T09:21:25;1.83;;;1.65;;
22144;SDS011;11238;48.730;11.566;2023-04-24T09:23:58;4.50;;;1.80;;
22144;SDS011;11238;48.730;11.566;2023-04-24T09:26:29;2.42;;;1.70;;
22144;SDS011;11238;48.730;11.566;2023-04-24T09:31:27;1.80;;;1.45;;
22144;SDS011;11238;48.730;11.566;2023-04-24T09:33:55;2.22;;;1.65;;
22144;SDS011;11238;48.730;11.566;2023-04-24T09:36:32;3.92;;;1.65;;
22144;SDS011;11238;48.730;11.566;2023-04-24T09:39:00;3.58;;;1.70;;
22144;SDS011;11238;48.730;11.566;2023-04-24T09:41:28;2.20;;;1.80;;
22144;SDS011;11238;48.730;11.566;2023-04-24T10:58:02;1.27;;;1.00;;
22144;SDS011;11238;48.730;11.566;2023-04-24T11:01:33;1.17;;;1.08;;
22144;SDS011;11238;48.730;11.566;2023-04-24T11:04:03;1.35;;;1.17;;
22144;SDS011;11238;48.730;11.566;2023-04-24T11:06:30;1.35;;;1.10;;
22144;SDS011;11238;48.730;11.566;2023-04-24T11:09:04;1.17;;;1.08;;
22144;SDS011;11238;48.730;11.566;2023-04-24T11:11:36;1.75;;;1.10;;
22144;SDS011;11238;48.730;11.566;2023-04-24T11:14:05;1.17;;;1.10;;
22144;SDS011;11238;48.730;11.566;2023-04-24T11:16:33;4.68;;;1.27;;
22144;SDS011;11238;48.730;11.566;2023-04-24T11:19:20;2.08;;;1.40;;
22144;SDS011;11238;48.730;11.566;2023-04-24T11:21:59;1.55;;;1.35;;
22144;SDS011;11238;48.730;11.566;2023-04-24T11:24:39;2.45;;;1.60;;
22144;SDS011;11238;48.730;11.566;2023-04-24T11:27:17;1.45;;;1.35;;
22144;SDS011;11238;48.730;11.566;2023-04-24T11:30:07;1.75;;;1.25;;
22144;SDS011;11238;48.730;11.566;2023-04-24T11:32:36;2.67;;;1.42;;
22144;SDS011;11238;48.730;11.566;2023-04-24T11:35:14;3.85;;;1.60;;
22144;SDS011;11238;48.730;11.566;2023-04-24T11:37:46;2.08;;;1.60;;
22144;SDS011;11238;48.730;11.566;2023-04-24T11:40:14;1.63;;;1.50;;
22144;SDS011;11238;48.730;11.566;2023-04-24T11:42:44;4.97;;;1.45;;
22144;SDS011;11238;48.730;11.566;2023-04-24T11:47:41;1.95;;;1.58;;
22144;SDS011;11238;48.730;11.566;2023-04-24T11:50:09;1.85;;;1.40;;
22144;SDS011;11238;48.730;11.566;2023-04-24T11:52:46;4.10;;;1.42;;
22144;SDS011;11238;48.730;11.566;2023-04-24T11:57:42;2.78;;;1.48;;
22144;SDS011;11238;48.730;11.566;2023-04-24T12:00:14;1.50;;;1.33;;
22144;SDS011;11238;48.730;11.566;2023-04-24T12:02:43;5.35;;;1.25;;
22144;SDS011;11238;48.730;11.566;2023-04-24T12:05:20;1.30;;;1.13;;
22144;SDS011;11238;48.730;11.566;2023-04-24T12:07:54;1.63;;;1.30;;
22144;SDS011;11238;48.730;11.566;2023-04-24T12:10:26;2.58;;;1.20;;
22144;SDS011;11238;48.730;11.566;2023-04-24T12:12:56;3.45;;;1.13;;
22144;SDS011;11238;48.730;11.566;2023-04-24T12:15:26;2.90;;;1.40;;
22144;SDS011;11238;48.730;11.566;2023-04-24T12:21:21;2.45;;;1.10;;
22144;SDS011;11238;48.730;11.566;2023-04-24T12:23:48;1.90;;;1.30;;
22144;SDS011;11238;48.730;11.566;2023-04-24T12:26:16;2.63;;;1.38;;
22144;SDS011;11238;48.730;11.566;2023-04-24T12:28:46;1.45;;;1.35;;
22144;SDS011;11238;48.730;11.566;2023-04-24T12:31:13;1.60;;;1.50;;
22144;SDS011;11238;48.730;11.566;2023-04-24T12:33:40;2.10;;;1.35;;
22144;SDS011;11238;48.730;11.566;2023-04-24T12:36:06;3.45;;;1.40;;
22144;SDS011;11238;48.730;11.566;2023-04-24T12:38:35;2.15;;;1.40;;
22144;SDS011;11238;48.730;11.566;2023-04-24T12:41:07;4.05;;;1.20;;
22144;SDS011;11238;48.730;11.566;2023-04-24T12:43:35;2.00;;;1.65;;
22144;SDS011;11238;48.730;11.566;2023-04-24T12:46:01;2.20;;;1.25;;
22144;SDS011;11238;48.730;11.566;2023-04-24T12:48:28;3.13;;;1.35;;
22144;SDS011;11238;48.730;11.566;2023-04-24T12:50:57;1.35;;;1.23;;
22144;SDS011;11238;48.730;11.566;2023-04-24T12:53:31;2.47;;;1.30;;
22144;SDS011;11238;48.730;11.566;2023-04-24T12:55:57;2.38;;;1.55;;
22144;SDS011;11238;48.730;11.566;2023-04-24T12:58:22;1.30;;;1.20;;
22144;SDS011;11238;48.730;11.566;2023-04-24T13:00:48;2.28;;;1.60;;
22144;SDS011;11238;48.730;11.566;2023-04-24T13:03:14;5.75;;;1.60;;
22144;SDS011;11238;48.730;11.566;2023-04-24T13:05:41;3.92;;;1.45;;
22144;SDS011;11238;48.730;11.566;2023-04-24T13:08:09;3.58;;;1.42;;
22144;SDS011;11238;48.730;11.566;2023-04-24T13:10:35;2.45;;;1.40;;
22144;SDS011;11238;48.730;11.566;2023-04-24T13:13:01;1.48;;;1.30;;
22144;SDS011;11238;48.730;11.566;2023-04-24T13:15:29;1.50;;;1.30;;
22144;SDS011;11238;48.730;11.566;2023-04-24T13:17:54;2.45;;;1.23;;
22144;SDS011;11238;48.730;11.566;2023-04-24T13:20:22;2.92;;;1.38;;
22144;SDS011;11238;48.730;11.566;2023-04-24T13:22:47;1.50;;;1.23;;
22144;SDS011;11238;48.730;11.566;2023-04-24T13:25:13;4.78;;;1.35;;
22144;SDS011;11238;48.730;11.566;2023-04-24T13:27:41;2.20;;;1.30;;
22144;SDS011;11238;48.730;11.566;2023-04-24T13:30:08;1.30;;;1.17;;
22144;SDS011;11238;48.730;11.566;2023-04-24T13:32:34;2.92;;;1.40;;
22144;SDS011;11238;48.730;11.566;2023-04-24T13:35:00;2.42;;;1.38;;
22144;SDS011;11238;48.730;11.566;2023-04-24T13:37:25;1.67;;;1.33;;
22144;SDS011;11238;48.730;11.566;2023-04-24T13:39:52;2.67;;;1.25;;
22144;SDS011;11238;48.730;11.566;2023-04-24T13:42:17;2.85;;;1.30;;
22144;SDS011;11238;48.730;11.566;2023-04-24T13:45:07;1.23;;;1.13;;
22144;SDS011;11238;48.730;11.566;2023-04-24T13:47:33;2.25;;;1.40;;
22144;SDS011;11238;48.730;11.566;2023-04-24T13:49:59;1.67;;;1.10;;
22144;SDS011;11238;48.730;11.566;2023-04-24T13:52:25;1.65;;;1.02;;
22144;SDS011;11238;48.730;11.566;2023-04-24T13:54:51;4.40;;;1.23;;
22144;SDS011;11238;48.730;11.566;2023-04-24T13:57:17;2.35;;;1.40;;
22144;SDS011;11238;48.730;11.566;2023-04-24T13:59:43;1.42;;;1.23;;
22144;SDS011;11238;48.730;11.566;2023-04-24T14:02:11;3.53;;;1.55;;
22144;SDS011;11238;48.730;11.566;2023-04-24T14:04:37;1.58;;;1.20;;
22144;SDS011;11238;48.730;11.566;2023-04-24T14:07:04;1.50;;;1.30;;
22144;SDS011;11238;48.730;11.566;2023-04-24T14:09:30;1.92;;;1.27;;
22144;SDS011;11238;48.730;11.566;2023-04-24T14:11:55;2.85;;;1.27;;
22144;SDS011;11238;48.730;11.566;2023-04-24T14:14:21;1.67;;;1.08;;
22144;SDS011;11238;48.730;11.566;2023-04-24T14:16:48;2.80;;;1.40;;
22144;SDS011;11238;48.730;11.566;2023-04-24T14:19:13;3.90;;;1.10;;
22144;SDS011;11238;48.730;11.566;2023-04-24T14:21:39;2.65;;;1.52;;
22144;SDS011;11238;48.730;11.566;2023-04-24T14:24:05;1.48;;;1.30;;
22144;SDS011;11238;48.730;11.566;2023-04-24T14:26:34;4.40;;;1.38;;
22144;SDS011;11238;48.730;11.566;2023-04-24T14:29:00;4.05;;;1.27;;
22144;SDS011;11238;48.730;11.566;2023-04-24T14:31:25;3.42;;;1.23;;
22144;SDS011;11238;48.730;11.566;2023-04-24T14:33:51;2.25;;;1.30;;
22144;SDS011;11238;48.730;11.566;2023-04-24T14:36:17;3.05;;;1.30;;
22144;SDS011;11238;48.730;11.566;2023-04-24T14:38:42;1.42;;;1.20;;
22144;SDS011;11238;48.730;11.566;2023-04-24T14:41:08;2.58;;;1.40;;
22144;SDS011;11238;48.730;11.566;2023-04-24T14:43:35;1.92;;;1.00;;
22144;SDS011;11238;48.730;11.566;2023-04-24T14:46:02;3.10;;;1.23;;
22144;SDS011;11238;48.730;11.566;2023-04-24T14:48:28;1.65;;;1.30;;
22144;SDS011;11238;48.730;11.566;2023-04-24T14:50:54;1.80;;;1.10;;
22144;SDS011;11238;48.730;11.566;2023-04-24T14:53:20;4.50;;;1.30;;
22144;SDS011;11238;48.730;11.566;2023-04-24T14:55:46;3.47;;;1.30;;
22144;SDS011;11238;48.730;11.566;2023-04-24T14:58:12;1.23;;;1.13;;
22144;SDS011;11238;48.730;11.566;2023-04-24T15:01:00;1.63;;;1.27;;
22144;SDS011;11238;48.730;11.566;2023-04-24T15:03:25;1.27;;;1.15;;
22144;SDS011;11238;48.730;11.566;2023-04-24T15:05:52;1.98;;;1.40;;
22144;SDS011;11238;48.730;11.566;2023-04-24T15:08:18;1.50;;;1.20;;
22144;SDS011;11238;48.730;11.566;2023-04-24T15:10:43;2.20;;;1.20;;
22144;SDS011;11238;48.730;11.566;2023-04-24T15:13:10;1.55;;;1.15;;
22144;SDS011;11238;48.730;11.566;2023-04-24T15:15:36;2.47;;;1.13;;
22144;SDS011;11238;48.730;11.566;2023-04-24T15:18:03;3.33;;;1.15;;
22144;SDS011;11238;48.730;11.566;2023-04-24T15:20:31;2.83;;;1.52;;
22144;SDS011;11238;48.730;11.566;2023-04-24T15:22:56;2.00;;;1.30;;
22144;SDS011;11238;48.730;11.566;2023-04-24T15:25:24;1.40;;;1.30;;
22144;SDS011;11238;48.730;11.566;2023-04-24T15:27:50;1.23;;;1.10;;
22144;SDS011;11238;48.730;11.566;2023-04-24T15:30:16;1.67;;;1.30;;
22144;SDS011;11238;48.730;11.566;2023-04-24T15:32:42;1.65;;;1.20;;
22144;SDS011;11238;48.730;11.566;2023-04-24T15:35:08;2.05;;;1.42;;
22144;SDS011;11238;48.730;11.566;2023-04-24T15:37:56;3.17;;;1.40;;
22144;SDS011;11238;48.730;11.566;2023-04-24T15:40:22;2.15;;;1.30;;
22144;SDS011;11238;48.730;11.566;2023-04-24T15:42:48;2.30;;;1.20;;
22144;SDS011;11238;48.730;11.566;2023-04-24T15:45:14;1.88;;;1.25;;
22144;SDS011;11238;48.730;11.566;2023-04-24T15:47:39;3.78;;;1.60;;
22144;SDS011;11238;48.730;11.566;2023-04-24T15:50:06;2.65;;;1.40;;
22144;SDS011;11238;48.730;11.566;2023-04-24T15:52:33;2.35;;;1.15;;
22144;SDS011;11238;48.730;11.566;2023-04-24T15:55:00;1.55;;;1.40;;
22144;SDS011;11238;48.730;11.566;2023-04-24T15:57:25;3.10;;;1.30;;
22144;SDS011;11238;48.730;11.566;2023-04-24T15:59:51;1.23;;;1.15;;
22144;SDS011;11238;48.730;11.566;2023-04-24T16:02:17;3.88;;;1.33;;
22144;SDS011;11238;48.730;11.566;2023-04-24T16:04:49;1.75;;;1.40;;
22144;SDS011;11238;48.730;11.566;2023-04-24T16:07:16;2.30;;;1.30;;
22144;SDS011;11238;48.730;11.566;2023-04-24T16:09:45;2.83;;;1.20;;
22144;SDS011;11238;48.730;11.566;2023-04-24T16:12:11;1.83;;;1.50;;
22144;SDS011;11238;48.730;11.566;2023-04-24T16:14:37;1.40;;;1.30;;
22144;SDS011;11238;48.730;11.566;2023-04-24T16:17:03;2.33;;;1.30;;
22144;SDS011;11238;48.730;11.566;2023-04-24T16:19:29;2.53;;;1.80;;
22144;SDS011;11238;48.730;11.566;2023-04-24T16:21:55;2.33;;;1.40;;
22144;SDS011;11238;48.730;11.566;2023-04-24T16:24:22;2.38;;;1.45;;
22144;SDS011;11238;48.730;11.566;2023-04-24T16:26:48;1.60;;;1.50;;
22144;SDS011;11238;48.730;11.566;2023-04-24T16:29:15;1.60;;;1.50;;
22144;SDS011;11238;48.730;11.566;2023-04-24T16:31:42;1.52;;;1.20;;
22144;SDS011;11238;48.730;11.566;2023-04-24T16:34:12;4.03;;;1.50;;
22144;SDS011;11238;48.730;11.566;2023-04-24T16:36:38;3.83;;;1.27;;
22144;SDS011;11238;48.730;11.566;2023-04-24T16:39:04;1.98;;;1.60;;
22144;SDS011;11238;48.730;11.566;2023-04-24T16:41:30;1.48;;;1.30;;
22144;SDS011;11238;48.730;11.566;2023-04-24T16:43:56;2.20;;;1.58;;
22144;SDS011;11238;48.730;11.566;2023-04-24T16:46:22;1.50;;;1.40;;
22144;SDS011;11238;48.730;11.566;2023-04-24T16:48:48;1.50;;;1.40;;
22144;SDS011;11238;48.730;11.566;2023-04-24T16:51:14;1.60;;;1.40;;